createdAt,value
2018-06-10T00:02:53.630Z,95.60
2018-06-10T00:07:56.839Z,96.00
2018-06-10T00:13:00.266Z,95.40
2018-06-10T00:18:03.477Z,95.70
2018-06-10T00:23:06.640Z,95.70
2018-06-10T00:28:09.991Z,95.20
2018-06-10T00:33:13.398Z,93.70
2018-06-10T00:38:16.559Z,94.50
2018-06-10T00:43:19.739Z,95.60
2018-06-10T00:48:23.164Z,95.40
2018-06-10T00:53:26.523Z,95.70
2018-06-10T00:58:29.823Z,96.40
2018-06-10T01:13:39.646Z,95.70
2018-06-10T01:18:42.937Z,95.80
2018-06-10T01:23:46.161Z,95.60
2018-06-10T01:28:49.407Z,96.20
2018-06-10T01:33:52.965Z,95.50
2018-06-10T01:38:56.132Z,95.80
2018-06-10T01:43:59.708Z,95.80
2018-06-10T01:49:02.878Z,93.90
2018-06-10T01:54:06.144Z,94.90
2018-06-10T01:59:09.530Z,95.00
2018-06-10T02:04:12.672Z,94.80
2018-06-10T02:09:15.895Z,95.60
2018-06-10T02:14:19.002Z,96.00
2018-06-10T02:19:22.313Z,96.00
2018-06-10T02:24:25.770Z,96.30
2018-06-10T02:29:29.076Z,96.10
2018-06-10T02:34:32.495Z,95.70
2018-06-10T02:39:35.731Z,95.60
2018-06-10T02:44:38.937Z,95.70
2018-06-10T02:49:42.412Z,95.40
2018-06-10T02:54:45.534Z,95.30
2018-06-10T02:59:49.009Z,95.40
2018-06-10T03:04:52.692Z,95.60
2018-06-10T03:09:56.676Z,95.60
2018-06-10T03:14:59.980Z,96.70
2018-06-10T03:20:03.234Z,96.40
2018-06-10T03:25:06.793Z,96.60
2018-06-10T03:30:10.024Z,96.30
2018-06-10T03:35:13.200Z,96.00
2018-06-10T03:40:16.353Z,96.70
2018-06-10T03:45:19.644Z,96.70
2018-06-10T03:50:22.955Z,96.60
2018-06-10T03:55:26.638Z,96.60
2018-06-10T04:00:29.840Z,96.10
2018-06-10T04:05:33.138Z,94.50
2018-06-10T04:10:36.230Z,93.20
2018-06-10T04:15:39.475Z,92.10
2018-06-10T04:20:42.801Z,92.50
2018-06-10T04:25:45.947Z,92.10
2018-06-10T04:30:49.315Z,91.00
2018-06-10T04:35:52.501Z,90.40
2018-06-10T04:40:55.822Z,90.00
2018-06-10T04:45:58.983Z,90.70
2018-06-10T04:51:02.568Z,90.90
2018-06-10T04:56:06.067Z,89.50
2018-06-10T05:01:09.256Z,89.00
2018-06-10T05:06:12.439Z,89.20
2018-06-10T05:11:15.803Z,89.30
2018-06-10T05:16:19.212Z,88.80
2018-06-10T05:21:22.625Z,88.30
2018-06-10T05:26:25.713Z,87.60
2018-06-10T05:31:28.891Z,87.00
2018-06-10T05:36:32.151Z,86.90
2018-06-10T05:41:35.458Z,87.10
2018-06-10T05:46:38.601Z,86.80
2018-06-10T05:51:41.860Z,85.80
2018-06-10T05:56:45.083Z,84.60
2018-06-10T06:01:48.587Z,83.50
2018-06-10T06:06:51.682Z,84.30
2018-06-10T06:11:54.997Z,83.70
2018-06-10T06:16:58.255Z,84.00
2018-06-10T06:22:01.478Z,85.00
2018-06-10T06:27:04.786Z,83.90
2018-06-10T06:32:07.946Z,82.40
2018-06-10T06:37:11.443Z,81.10
2018-06-10T06:42:14.836Z,80.00
2018-06-10T06:47:18.168Z,78.90
2018-06-10T06:52:21.746Z,78.70
2018-06-10T06:57:32.085Z,77.50
2018-06-10T07:02:35.436Z,77.40
2018-06-10T07:07:38.803Z,68.70
2018-06-10T07:12:41.980Z,57.10
2018-06-10T07:17:45.152Z,53.30
2018-06-10T07:22:48.319Z,51.10
2018-06-10T07:27:51.537Z,48.80
2018-06-10T07:32:54.898Z,44.90
2018-06-10T07:37:58.304Z,43.70
2018-06-10T07:43:01.729Z,43.90
2018-06-10T07:48:05.446Z,40.40
2018-06-10T07:53:08.796Z,39.10
2018-06-10T07:58:12.275Z,38.20
2018-06-10T08:03:15.458Z,38.80
2018-06-10T08:08:18.879Z,39.40
2018-06-10T08:13:22.169Z,37.00
2018-06-10T08:23:28.584Z,35.30
2018-06-10T08:28:31.714Z,36.10
2018-06-10T08:33:34.876Z,36.10
2018-06-10T08:38:38.338Z,36.30
2018-06-10T08:43:41.554Z,36.70
2018-06-10T08:48:44.741Z,35.20
2018-06-10T08:53:48.024Z,36.10
2018-06-10T08:58:51.203Z,35.40
2018-06-10T09:03:54.442Z,36.30
2018-06-10T09:08:57.589Z,36.50
2018-06-10T09:14:00.827Z,35.50
2018-06-10T09:19:04.295Z,35.90
2018-06-10T09:24:07.542Z,36.40
2018-06-10T09:29:11.150Z,37.50
2018-06-10T09:34:14.534Z,37.70
2018-06-10T09:39:18.058Z,42.30
2018-06-10T09:44:21.076Z,42.10
2018-06-10T09:49:24.635Z,45.70
2018-06-10T09:54:27.829Z,44.60
2018-06-10T09:59:31.014Z,42.20
2018-06-10T10:04:34.235Z,42.80
2018-06-10T10:09:37.460Z,40.60
2018-06-10T10:14:40.666Z,38.70
2018-06-10T10:19:43.845Z,38.30
2018-06-10T10:24:47.395Z,37.90
2018-06-10T10:29:50.696Z,38.40
2018-06-10T10:34:54.018Z,39.10
2018-06-10T10:39:57.378Z,38.80
2018-06-10T10:45:00.755Z,36.90
2018-06-10T10:50:04.235Z,34.20
2018-06-10T11:00:10.997Z,29.60
2018-06-10T11:05:14.372Z,28.10
2018-06-10T11:10:17.811Z,26.00
2018-06-10T11:15:21.111Z,24.60
2018-06-10T11:20:24.431Z,24.90
2018-06-10T11:25:27.714Z,26.60
2018-06-10T11:30:31.652Z,26.00
2018-06-10T11:35:35.293Z,28.00
2018-06-10T11:40:38.692Z,31.40
2018-06-10T11:45:41.968Z,32.30
2018-06-10T11:50:45.156Z,34.60
2018-06-10T11:55:48.375Z,33.80
2018-06-10T12:00:51.539Z,33.90
2018-06-10T12:05:54.739Z,32.70
2018-06-10T12:10:57.983Z,32.30
2018-06-10T12:16:01.436Z,32.20
2018-06-10T12:21:04.570Z,34.80
2018-06-10T12:26:07.943Z,33.70
2018-06-10T12:31:11.100Z,34.10
2018-06-10T12:36:14.281Z,32.80
2018-06-10T12:41:17.418Z,35.30
2018-06-10T12:46:20.899Z,34.90
2018-06-10T12:51:23.984Z,36.10
2018-06-10T12:56:27.138Z,35.80
2018-06-10T13:01:30.289Z,35.20
2018-06-10T13:06:33.566Z,36.40
2018-06-10T13:11:36.830Z,36.60
2018-06-10T13:16:40.036Z,36.20
2018-06-10T13:21:43.192Z,36.30
2018-06-10T13:26:46.269Z,36.40
2018-06-10T13:31:49.375Z,38.00
2018-06-10T13:36:52.567Z,36.10
2018-06-10T13:41:55.847Z,36.40
2018-06-10T13:46:58.940Z,37.30
2018-06-10T13:52:02.748Z,37.00
2018-06-10T13:57:05.901Z,36.20
2018-06-10T14:02:09.295Z,37.00
2018-06-10T14:07:12.353Z,37.10
2018-06-10T14:12:15.540Z,37.10
2018-06-10T14:17:18.701Z,36.40
2018-06-10T14:22:22.099Z,36.80
2018-06-10T14:27:25.408Z,36.00
2018-06-10T14:32:28.734Z,36.00
2018-06-10T14:37:31.812Z,36.00
2018-06-10T14:42:34.979Z,35.90
2018-06-10T14:47:40.226Z,36.00
2018-06-10T14:52:43.326Z,36.20
2018-06-10T14:57:46.802Z,36.80
2018-06-10T15:02:50.034Z,35.60
2018-06-10T15:07:53.213Z,35.50
2018-06-10T15:12:56.453Z,35.50
2018-06-10T15:17:59.726Z,36.70
2018-06-10T15:23:02.928Z,34.90
2018-06-10T15:28:06.364Z,35.30
2018-06-10T15:38:12.749Z,34.10
2018-06-10T15:43:16.065Z,33.70
2018-06-10T15:48:19.382Z,33.70
2018-06-10T15:53:22.638Z,33.80
2018-06-10T15:58:25.865Z,33.60
2018-06-10T16:03:28.893Z,33.40
2018-06-10T16:08:32.068Z,33.10
2018-06-10T16:13:35.088Z,35.90
2018-06-10T16:18:38.441Z,38.50
2018-06-10T16:23:41.644Z,38.10
2018-06-10T16:28:44.962Z,42.10
2018-06-10T16:33:48.131Z,40.20
2018-06-10T16:38:51.679Z,40.00
2018-06-10T16:43:55.075Z,42.80
2018-06-10T16:49:05.988Z,40.50
2018-06-10T16:54:09.311Z,41.20
2018-06-10T16:59:12.801Z,41.10
2018-06-10T17:04:16.335Z,42.30
2018-06-10T17:09:19.805Z,44.20
2018-06-10T17:14:25.712Z,44.60
2018-06-10T17:19:29.087Z,46.30
2018-06-10T17:24:32.657Z,50.10
2018-06-10T17:29:36.222Z,50.70
2018-06-10T17:34:39.705Z,47.00
2018-06-10T17:39:42.971Z,52.00
2018-06-10T17:44:46.475Z,52.60
2018-06-10T17:49:49.723Z,50.60
2018-06-10T17:54:53.158Z,49.40
2018-06-10T17:59:56.337Z,49.80
2018-06-10T18:04:59.775Z,53.20
2018-06-10T18:10:03.429Z,54.70
2018-06-10T18:15:06.836Z,53.70
2018-06-10T18:20:10.327Z,53.50
2018-06-10T18:25:13.645Z,53.10
2018-06-10T18:30:17.039Z,53.30
2018-06-10T18:40:23.502Z,53.10
2018-06-10T18:45:26.863Z,52.40
2018-06-10T18:50:29.984Z,53.10
2018-06-10T18:55:33.298Z,54.00
2018-06-10T19:00:37.913Z,54.30
2018-06-10T19:05:42.418Z,54.80
2018-06-10T19:10:46.534Z,54.80
2018-06-10T19:15:49.926Z,56.10
2018-06-10T19:20:53.965Z,55.30
2018-06-10T19:25:57.334Z,56.30
2018-06-10T19:31:00.523Z,56.70
2018-06-10T19:36:05.232Z,57.70
2018-06-10T19:41:08.396Z,57.80
2018-06-10T19:46:11.783Z,59.00
2018-06-10T19:51:15.124Z,58.60
2018-06-10T19:56:18.675Z,59.00
2018-06-10T20:01:21.984Z,58.90
2018-06-10T20:06:25.479Z,58.70
2018-06-10T20:22:55.471Z,59.50
2018-06-10T20:27:58.760Z,59.80
2018-06-10T20:33:02.095Z,61.90
2018-06-10T20:38:05.844Z,62.30
2018-06-10T20:43:09.167Z,62.50
2018-06-10T20:48:12.440Z,64.40
2018-06-10T20:53:15.648Z,64.80
2018-06-10T20:58:18.880Z,64.30
2018-06-10T21:03:22.063Z,64.90
2018-06-10T21:08:25.239Z,65.70
2018-06-10T21:13:28.739Z,65.60
2018-06-10T21:18:32.492Z,65.80
2018-06-10T21:23:35.685Z,65.60
2018-06-10T21:28:38.788Z,65.10
2018-06-10T21:33:42.165Z,64.20
2018-06-10T21:38:45.591Z,63.80
2018-06-10T21:43:48.742Z,64.20
2018-06-10T21:48:52.294Z,64.30
2018-06-10T21:53:55.607Z,62.70
2018-06-10T21:58:59.263Z,61.30
2018-06-10T22:04:02.699Z,62.40
2018-06-10T22:09:07.308Z,63.20
2018-06-10T22:14:10.708Z,68.50
2018-06-10T22:19:14.309Z,67.40
2018-06-10T22:24:17.618Z,64.80
2018-06-10T22:34:24.655Z,66.00
2018-06-10T22:39:28.163Z,66.20
2018-06-10T22:44:31.488Z,65.50
2018-06-10T22:49:34.683Z,65.50
2018-06-10T22:54:42.458Z,65.80
2018-06-10T22:59:46.011Z,66.50
2018-06-10T23:04:49.111Z,67.50
2018-06-10T23:09:52.261Z,67.50
2018-06-10T23:14:55.484Z,67.90
2018-06-10T23:19:58.949Z,67.90
2018-06-10T23:25:02.118Z,69.50
2018-06-10T23:30:05.426Z,70.80
2018-06-10T23:35:08.627Z,70.40
2018-06-10T23:40:11.783Z,70.10
2018-06-10T23:45:15.070Z,69.90
2018-06-10T23:50:18.490Z,69.80
2018-06-10T23:55:21.727Z,70.00
